createdAt,value
2022-11-26T00:02:29.342Z,47.37
2022-11-26T00:04:59.046Z,42.40
2022-11-26T00:07:30.601Z,75.03
2022-11-26T00:09:59.708Z,71.47
2022-11-26T00:12:35.291Z,110.10
2022-11-26T00:15:23.888Z,120.33
2022-11-26T00:17:53.268Z,93.87
2022-11-26T00:20:30.999Z,92.77
2022-11-26T00:23:02.408Z,72.07
2022-11-26T00:25:51.417Z,131.33
2022-11-26T00:28:38.403Z,64.67
2022-11-26T00:31:15.351Z,100.17
2022-11-26T00:33:42.596Z,80.30
2022-11-26T00:36:35.961Z,54.33
2022-11-26T00:39:24.487Z,102.93
2022-11-26T00:41:52.515Z,60.30
2022-11-26T00:44:24.180Z,102.80
2022-11-26T00:46:52.063Z,90.83
2022-11-26T00:49:19.323Z,76.23
2022-11-26T00:51:47.619Z,81.27
2022-11-26T00:54:18.492Z,103.20
2022-11-26T00:56:47.721Z,136.13
2022-11-26T00:59:21.095Z,78.13
2022-11-26T01:01:48.749Z,60.87
2022-11-26T01:04:15.762Z,106.30
2022-11-26T01:06:45.746Z,82.40
2022-11-26T01:09:20.478Z,86.47
2022-11-26T01:11:53.522Z,93.37
2022-11-26T01:14:24.721Z,50.37
2022-11-26T01:16:53.345Z,93.73
2022-11-26T01:19:20.537Z,73.53
2022-11-26T01:21:47.597Z,127.73
2022-11-26T01:24:14.568Z,125.03
2022-11-26T01:26:44.962Z,110.00
2022-11-26T01:29:19.969Z,133.93
2022-11-26T01:31:47.713Z,113.83
2022-11-26T01:34:15.405Z,142.90
2022-11-26T01:36:43.083Z,120.87
2022-11-26T01:39:17.347Z,132.00
2022-11-26T01:42:14.680Z,153.77
2022-11-26T01:44:41.798Z,159.57
2022-11-26T01:47:28.398Z,169.63
2022-11-26T01:50:32.178Z,135.43
2022-11-26T01:53:14.911Z,94.00
2022-11-26T01:55:59.287Z,102.70
2022-11-26T01:58:40.564Z,105.13
2022-11-26T02:01:08.328Z,70.37
2022-11-26T02:04:00.101Z,99.40
2022-11-26T02:06:33.767Z,108.53
2022-11-26T02:09:06.843Z,111.20
2022-11-26T02:11:34.367Z,110.60
2022-11-26T02:14:27.957Z,100.53
2022-11-26T02:18:01.065Z,137.73
2022-11-26T02:20:53.877Z,130.73
2022-11-26T02:24:20.792Z,114.90
2022-11-26T02:27:18.236Z,143.67
2022-11-26T02:30:10.668Z,81.67
2022-11-26T02:33:15.740Z,135.67
2022-11-26T02:36:22.224Z,127.10
2022-11-26T02:38:50.146Z,117.13
2022-11-26T02:41:17.146Z,125.50
2022-11-26T02:43:44.517Z,159.90
2022-11-26T02:46:18.345Z,137.93
2022-11-26T02:48:49.936Z,134.30
2022-11-26T02:51:29.475Z,122.50
2022-11-26T02:54:00.574Z,158.17
2022-11-26T02:56:29.238Z,177.40
2022-11-26T02:58:57.309Z,170.40
2022-11-26T03:01:47.532Z,143.20
2022-11-26T03:04:25.501Z,125.37
2022-11-26T03:06:56.320Z,113.13
2022-11-26T03:09:24.052Z,184.20
2022-11-26T03:11:51.197Z,144.43
2022-11-26T03:14:18.182Z,60.07
2022-11-26T03:16:45.191Z,142.10
2022-11-26T03:19:12.185Z,202.50
2022-11-26T03:21:39.122Z,176.53
2022-11-26T03:24:06.502Z,112.97
2022-11-26T03:26:33.441Z,187.20
2022-11-26T03:29:00.453Z,187.33
2022-11-26T03:31:27.466Z,133.03
2022-11-26T03:33:54.467Z,207.63
2022-11-26T03:36:21.690Z,178.60
2022-11-26T03:38:48.936Z,271.13
2022-11-26T03:41:15.916Z,193.47
2022-11-26T03:43:42.914Z,101.63
2022-11-26T03:46:09.928Z,258.17
2022-11-26T03:48:36.970Z,271.53
2022-11-26T03:51:04.057Z,375.23
2022-11-26T03:53:31.096Z,306.53
2022-11-26T03:55:58.115Z,454.83
2022-11-26T03:58:25.217Z,310.13
2022-11-26T04:00:52.287Z,358.17
2022-11-26T04:03:19.651Z,235.57
2022-11-26T04:05:46.849Z,279.23
2022-11-26T04:08:13.949Z,194.07
2022-11-26T04:10:40.917Z,187.57
2022-11-26T04:13:08.013Z,299.70
2022-11-26T04:15:35.587Z,235.20
2022-11-26T04:18:02.625Z,376.03
2022-11-26T04:20:29.673Z,362.77
2022-11-26T04:22:56.785Z,282.67
2022-11-26T04:25:23.864Z,173.40
2022-11-26T04:27:50.881Z,431.23
2022-11-26T04:30:18.080Z,406.73
2022-11-26T04:32:45.314Z,437.57
2022-11-26T04:35:12.311Z,382.53
2022-11-26T04:37:39.311Z,259.30
2022-11-26T04:40:07.497Z,180.77
2022-11-26T04:42:35.337Z,171.70
2022-11-26T04:45:02.652Z,205.23
2022-11-26T04:47:29.703Z,227.27
2022-11-26T04:49:56.653Z,327.30
2022-11-26T04:52:23.820Z,280.53
2022-11-26T04:54:50.813Z,319.13
2022-11-26T04:57:17.812Z,366.07
2022-11-26T04:59:44.899Z,439.57
2022-11-26T05:02:11.978Z,173.73
2022-11-26T05:04:39.122Z,442.30
2022-11-26T05:07:06.360Z,215.00
2022-11-26T05:09:33.457Z,245.60
2022-11-26T05:12:00.668Z,295.33
2022-11-26T05:14:27.645Z,235.70
2022-11-26T05:16:54.721Z,201.73
2022-11-26T05:19:21.767Z,179.87
2022-11-26T05:21:48.821Z,150.23
2022-11-26T05:24:15.819Z,167.20
2022-11-26T05:26:42.837Z,148.93
2022-11-26T05:29:09.855Z,151.67
2022-11-26T05:31:37.129Z,170.90
2022-11-26T05:34:04.337Z,143.60
2022-11-26T05:36:31.361Z,141.30
2022-11-26T05:38:58.337Z,147.37
2022-11-26T05:41:25.392Z,143.07
2022-11-26T05:43:52.446Z,164.90
2022-11-26T05:46:20.064Z,143.40
2022-11-26T05:48:47.168Z,171.30
2022-11-26T05:51:14.208Z,141.20
2022-11-26T05:53:41.326Z,148.27
2022-11-26T05:56:08.571Z,149.63
2022-11-26T05:58:35.715Z,158.13
2022-11-26T06:01:09.281Z,147.00
2022-11-26T06:03:37.658Z,171.40
2022-11-26T06:06:05.922Z,174.00
2022-11-26T06:08:33.416Z,177.10
2022-11-26T06:11:00.418Z,123.33
2022-11-26T06:13:27.609Z,177.37
2022-11-26T06:16:00.264Z,149.17
2022-11-26T06:18:27.237Z,139.53
2022-11-26T06:20:54.595Z,129.83
2022-11-26T06:23:21.585Z,148.80
2022-11-26T06:25:48.527Z,149.47
2022-11-26T06:28:15.849Z,152.33
2022-11-26T06:30:45.892Z,118.43
2022-11-26T06:33:13.524Z,140.13
2022-11-26T06:35:40.577Z,128.27
2022-11-26T06:38:08.973Z,134.00
2022-11-26T06:40:36.175Z,129.57
2022-11-26T06:43:03.362Z,132.30
2022-11-26T06:45:30.917Z,112.60
2022-11-26T06:47:57.936Z,132.80
2022-11-26T06:50:24.942Z,107.93
2022-11-26T06:53:27.492Z,111.60
2022-11-26T06:55:54.429Z,123.07
2022-11-26T06:58:25.076Z,117.93
2022-11-26T07:00:52.271Z,113.43
2022-11-26T07:03:23.789Z,103.40
2022-11-26T07:05:51.982Z,100.77
2022-11-26T07:08:19.042Z,114.77
2022-11-26T07:10:49.009Z,102.97
2022-11-26T07:13:16.425Z,124.07
2022-11-26T07:15:43.446Z,75.43
2022-11-26T07:18:10.507Z,107.87
2022-11-26T07:20:38.036Z,114.60
2022-11-26T07:23:05.234Z,124.13
2022-11-26T07:25:32.254Z,124.73
2022-11-26T07:27:59.293Z,122.57
2022-11-26T07:30:26.440Z,108.00
2022-11-26T07:32:53.558Z,93.30
2022-11-26T07:35:20.646Z,105.30
2022-11-26T07:37:47.841Z,116.40
2022-11-26T07:40:14.926Z,108.53
2022-11-26T07:42:41.920Z,110.67
2022-11-26T07:45:09.507Z,106.27
2022-11-26T07:47:36.880Z,100.03
2022-11-26T07:50:05.085Z,85.23
2022-11-26T07:52:32.133Z,94.80
2022-11-26T07:54:59.155Z,89.17
2022-11-26T07:57:26.234Z,84.30
2022-11-26T07:59:53.199Z,90.57
2022-11-26T08:02:20.279Z,69.17
2022-11-26T08:04:47.391Z,71.40
2022-11-26T08:07:21.885Z,77.53
2022-11-26T08:09:51.557Z,86.27
2022-11-26T08:12:18.570Z,61.10
2022-11-26T08:14:45.538Z,76.03
2022-11-26T08:17:12.668Z,67.43
2022-11-26T08:19:45.688Z,77.70
2022-11-26T08:22:12.678Z,67.77
2022-11-26T08:24:40.218Z,67.43
2022-11-26T08:27:07.595Z,65.70
2022-11-26T08:29:37.342Z,65.17
2022-11-26T08:32:05.083Z,65.33
2022-11-26T08:34:33.586Z,65.10
2022-11-26T08:37:00.584Z,65.50
2022-11-26T08:39:27.727Z,71.20
2022-11-26T08:41:55.531Z,67.17
2022-11-26T08:44:22.830Z,57.90
2022-11-26T08:46:50.524Z,57.07
2022-11-26T08:49:20.689Z,47.23
2022-11-26T08:51:48.012Z,47.40
2022-11-26T08:54:15.060Z,57.70
2022-11-26T08:56:42.288Z,60.40
2022-11-26T08:59:09.335Z,57.30
2022-11-26T09:01:36.623Z,45.63
2022-11-26T09:04:05.099Z,47.03
2022-11-26T09:06:38.370Z,47.97
2022-11-26T09:09:12.496Z,49.37
2022-11-26T09:11:57.611Z,54.97
2022-11-26T09:14:29.476Z,45.83
2022-11-26T09:16:58.291Z,47.23
2022-11-26T09:19:25.732Z,45.77
2022-11-26T09:21:52.886Z,50.77
2022-11-26T09:24:21.199Z,50.37
2022-11-26T09:26:48.559Z,55.93
2022-11-26T09:29:21.078Z,41.07
2022-11-26T09:34:37.794Z,48.27
2022-11-26T09:37:05.288Z,45.13
2022-11-26T09:39:32.505Z,45.00
2022-11-26T09:42:09.067Z,43.63
2022-11-26T09:45:26.405Z,47.40
2022-11-26T09:47:54.100Z,48.73
2022-11-26T09:50:32.328Z,52.10
2022-11-26T09:53:33.322Z,39.67
2022-11-26T09:56:02.205Z,33.67
2022-11-26T09:59:01.548Z,41.23
2022-11-26T10:01:32.454Z,32.93
2022-11-26T10:04:00.475Z,46.03
2022-11-26T10:07:01.116Z,36.30
2022-11-26T10:10:16.402Z,36.43
2022-11-26T10:13:33.014Z,27.43
2022-11-26T10:16:39.228Z,27.97
2022-11-26T10:19:46.000Z,34.93
2022-11-26T10:22:39.438Z,33.90
2022-11-26T10:25:22.591Z,27.90
2022-11-26T10:27:51.054Z,43.10
2022-11-26T10:30:30.722Z,30.03
2022-11-26T10:33:02.268Z,24.83
2022-11-26T10:35:30.290Z,31.83
2022-11-26T10:37:58.445Z,28.90
2022-11-26T10:40:33.042Z,30.30
2022-11-26T10:43:08.634Z,33.00
2022-11-26T10:45:55.839Z,29.30
2022-11-26T10:48:30.432Z,23.77
2022-11-26T10:51:28.550Z,24.27
2022-11-26T10:54:05.012Z,28.73
2022-11-26T10:56:56.179Z,21.47
2022-11-26T10:59:31.402Z,26.83
2022-11-26T11:02:26.470Z,25.00
2022-11-26T11:05:04.117Z,20.57
2022-11-26T11:07:41.229Z,25.53
2022-11-26T11:10:11.583Z,21.40
2022-11-26T11:12:49.361Z,19.37
2022-11-26T11:15:33.782Z,20.53
2022-11-26T11:18:15.509Z,20.57
2022-11-26T11:20:53.411Z,17.80
2022-11-26T11:23:46.133Z,20.03
2022-11-26T11:26:24.827Z,14.63
2022-11-26T11:28:56.353Z,22.87
2022-11-26T11:31:26.743Z,27.23
2022-11-26T11:34:32.732Z,21.77
2022-11-26T11:37:14.906Z,29.33
2022-11-26T11:39:43.121Z,30.87
2022-11-26T11:42:29.393Z,32.83
2022-11-26T11:44:58.419Z,29.67
2022-11-26T11:47:46.769Z,37.90
2022-11-26T11:51:18.673Z,31.37
2022-11-26T11:54:29.465Z,19.57
2022-11-26T11:57:54.488Z,25.77
2022-11-26T12:01:00.145Z,25.47
2022-11-26T12:03:49.748Z,24.40
2022-11-26T12:06:39.941Z,23.80
2022-11-26T12:09:38.985Z,22.03
2022-11-26T12:12:33.688Z,20.97
2022-11-26T12:15:31.444Z,23.40
2022-11-26T12:18:31.713Z,27.70
2022-11-26T12:21:15.636Z,20.03
2022-11-26T12:23:58.086Z,28.20
2022-11-26T12:26:45.227Z,24.87
2022-11-26T12:29:58.442Z,23.73
2022-11-26T12:33:15.442Z,26.20
2022-11-26T12:35:59.180Z,18.87
2022-11-26T12:38:45.086Z,26.03
2022-11-26T12:41:28.689Z,25.10
2022-11-26T12:44:28.178Z,23.07
2022-11-26T12:47:33.012Z,27.50
2022-11-26T12:50:05.663Z,23.40
2022-11-26T12:52:42.428Z,22.50
2022-11-26T12:55:41.807Z,21.07
2022-11-26T12:58:24.074Z,22.17
2022-11-26T13:00:54.548Z,25.97
2022-11-26T13:03:33.621Z,25.40
2022-11-26T13:06:45.517Z,19.30
2022-11-26T13:09:50.325Z,26.37
2022-11-26T13:12:42.440Z,24.03
2022-11-26T13:15:23.449Z,25.57
2022-11-26T13:17:51.666Z,25.73
2022-11-26T13:20:39.934Z,23.37
2022-11-26T13:23:53.332Z,23.17
2022-11-26T13:26:57.403Z,19.30
2022-11-26T13:29:30.199Z,26.53
2022-11-26T13:32:35.012Z,37.23
2022-11-26T13:35:57.112Z,22.03
2022-11-26T13:39:20.431Z,25.57
2022-11-26T13:42:44.300Z,28.13
2022-11-26T13:45:46.976Z,23.63
2022-11-26T13:48:38.259Z,25.30
2022-11-26T13:51:28.321Z,21.07
2022-11-26T13:54:19.556Z,27.13
2022-11-26T13:56:48.420Z,19.40
2022-11-26T13:59:28.411Z,25.33
2022-11-26T14:01:56.357Z,27.93
2022-11-26T14:04:23.306Z,26.67
2022-11-26T14:07:05.354Z,28.83
2022-11-26T14:09:44.607Z,28.33
2022-11-26T14:12:20.217Z,29.00
2022-11-26T14:14:49.467Z,32.43
2022-11-26T14:17:31.086Z,37.63
2022-11-26T14:20:02.160Z,30.23
2022-11-26T14:22:36.779Z,34.03
2022-11-26T14:25:12.034Z,36.20
2022-11-26T14:27:59.043Z,33.63
2022-11-26T14:30:28.161Z,36.73
2022-11-26T14:33:14.395Z,43.17
2022-11-26T14:35:51.550Z,44.37
2022-11-26T14:38:31.618Z,41.93
2022-11-26T14:41:00.981Z,28.17
2022-11-26T14:43:29.555Z,36.13
2022-11-26T14:46:10.158Z,41.57
2022-11-26T14:48:48.147Z,38.23
2022-11-26T14:51:26.444Z,42.17
2022-11-26T14:53:55.295Z,41.13
2022-11-26T14:56:25.137Z,35.03
2022-11-26T14:59:01.908Z,40.03
2022-11-26T15:01:29.658Z,37.90
2022-11-26T15:04:03.639Z,42.70
2022-11-26T15:06:43.169Z,40.67
2022-11-26T15:09:38.986Z,60.70
2022-11-26T15:12:15.491Z,86.43
2022-11-26T15:14:58.870Z,47.37
2022-11-26T15:17:30.510Z,63.13
2022-11-26T15:20:02.816Z,52.43
2022-11-26T15:22:42.444Z,49.73
2022-11-26T15:25:25.088Z,87.90
2022-11-26T15:28:00.875Z,57.47
2022-11-26T15:30:37.789Z,52.77
2022-11-26T15:33:14.220Z,76.00
2022-11-26T15:35:41.719Z,72.90
2022-11-26T15:38:20.334Z,59.53
2022-11-26T15:41:18.373Z,60.37
2022-11-26T15:43:51.716Z,58.93
2022-11-26T15:46:34.265Z,57.77
2022-11-26T15:49:17.846Z,67.40
2022-11-26T15:51:57.041Z,61.17
2022-11-26T15:54:49.588Z,64.43
2022-11-26T15:57:37.545Z,69.10
2022-11-26T16:00:22.515Z,56.93
2022-11-26T16:02:51.458Z,56.33
2022-11-26T16:05:35.779Z,51.47
2022-11-26T16:08:27.111Z,75.50
2022-11-26T16:11:04.557Z,67.00
2022-11-26T16:13:34.665Z,67.63
2022-11-26T16:16:09.470Z,75.30
2022-11-26T16:18:54.146Z,77.33
2022-11-26T16:21:30.702Z,77.20
2022-11-26T16:24:05.940Z,83.17
2022-11-26T16:26:57.630Z,82.43
2022-11-26T16:29:26.781Z,54.30
2022-11-26T16:31:53.896Z,69.43
2022-11-26T16:34:21.560Z,92.83
2022-11-26T16:36:48.676Z,89.77
2022-11-26T16:39:17.500Z,91.77
2022-11-26T16:41:44.495Z,126.03
2022-11-26T16:44:11.563Z,71.37
2022-11-26T16:46:40.964Z,67.93
2022-11-26T16:49:09.849Z,109.50
2022-11-26T16:51:36.886Z,108.03
2022-11-26T16:54:03.971Z,107.73
2022-11-26T16:56:38.485Z,88.17
2022-11-26T16:59:18.354Z,87.10
2022-11-26T17:01:45.653Z,103.47
2022-11-26T17:04:14.472Z,86.57
2022-11-26T17:06:43.307Z,84.63
2022-11-26T17:09:20.341Z,80.93
2022-11-26T17:11:47.593Z,84.73
2022-11-26T17:14:14.725Z,73.23
2022-11-26T17:16:42.697Z,77.53
2022-11-26T17:19:15.055Z,99.93
2022-11-26T17:21:42.199Z,99.17
2022-11-26T17:24:09.210Z,113.97
2022-11-26T17:26:36.285Z,106.30
2022-11-26T17:29:03.369Z,165.17
2022-11-26T17:31:30.631Z,135.63
2022-11-26T17:33:57.785Z,129.40
2022-11-26T17:36:24.902Z,128.70
2022-11-26T17:38:52.097Z,123.00
2022-11-26T17:41:19.403Z,126.27
2022-11-26T17:43:46.573Z,114.67
2022-11-26T17:46:21.597Z,82.03
2022-11-26T17:48:51.414Z,108.27
2022-11-26T17:51:21.414Z,105.37
2022-11-26T17:53:48.505Z,119.73
2022-11-26T17:56:23.031Z,69.43
2022-11-26T17:58:50.568Z,67.17
2022-11-26T18:01:18.393Z,102.33
2022-11-26T18:03:46.603Z,87.70
2022-11-26T18:07:10.632Z,90.83
2022-11-26T18:09:38.462Z,84.80
2022-11-26T18:12:08.509Z,78.30
2022-11-26T18:14:43.626Z,79.97
2022-11-26T18:17:11.673Z,75.30
2022-11-26T18:19:43.588Z,74.27
2022-11-26T18:22:17.783Z,95.70
2022-11-26T18:24:56.488Z,76.23
2022-11-26T18:27:28.602Z,79.90
2022-11-26T18:29:55.611Z,70.23
2022-11-26T18:32:22.819Z,82.37
2022-11-26T18:34:50.596Z,76.63
2022-11-26T18:37:18.272Z,66.50
2022-11-26T18:39:45.364Z,79.43
2022-11-26T18:45:00.932Z,76.30
2022-11-26T18:47:27.940Z,80.27
2022-11-26T18:49:54.930Z,70.13
2022-11-26T18:52:21.906Z,89.33
2022-11-26T18:54:48.929Z,92.50
2022-11-26T18:57:15.885Z,77.20
2022-11-26T18:59:43.133Z,73.93
2022-11-26T19:02:11.466Z,85.10
2022-11-26T19:04:39.244Z,96.13
2022-11-26T19:07:06.259Z,92.57
2022-11-26T19:09:33.260Z,82.33
2022-11-26T19:12:00.318Z,91.33
2022-11-26T19:14:27.404Z,97.33
2022-11-26T19:16:54.488Z,83.33
2022-11-26T19:19:22.559Z,95.10
2022-11-26T19:21:50.259Z,91.53
2022-11-26T19:24:17.289Z,94.97
2022-11-26T19:26:44.274Z,98.53
2022-11-26T19:29:13.128Z,108.23
2022-11-26T19:31:40.511Z,98.50
2022-11-26T19:34:13.946Z,91.67
2022-11-26T19:36:41.488Z,95.40
2022-11-26T19:39:08.934Z,101.77
2022-11-26T19:41:36.235Z,96.83
2022-11-26T19:44:05.293Z,93.90
2022-11-26T19:46:34.985Z,94.67
2022-11-26T19:49:02.135Z,67.63
2022-11-26T19:51:29.158Z,98.93
2022-11-26T19:53:57.043Z,123.17
2022-11-26T19:56:29.664Z,108.17
2022-11-26T19:59:01.980Z,136.23
2022-11-26T20:01:34.476Z,117.10
2022-11-26T20:04:11.595Z,154.53
2022-11-26T20:06:39.061Z,64.23
2022-11-26T20:09:09.236Z,121.10
2022-11-26T20:11:40.186Z,96.03
2022-11-26T20:14:11.400Z,125.33
2022-11-26T20:16:44.019Z,139.13
2022-11-26T20:19:12.552Z,108.70
2022-11-26T20:21:40.100Z,125.37
2022-11-26T20:24:14.857Z,97.87
2022-11-26T20:26:45.076Z,116.97
2022-11-26T20:29:16.937Z,97.83
2022-11-26T20:31:49.756Z,116.90
2022-11-26T20:34:22.238Z,132.80
2022-11-26T20:36:52.280Z,127.03
2022-11-26T20:39:23.301Z,155.50
2022-11-26T20:41:50.786Z,128.23
2022-11-26T20:44:17.848Z,121.17
2022-11-26T20:46:44.868Z,146.23
2022-11-26T20:49:12.076Z,122.60
2022-11-26T20:51:39.527Z,128.00
2022-11-26T20:54:06.635Z,135.93
2022-11-26T20:56:33.702Z,114.33
2022-11-26T20:59:02.524Z,118.03
2022-11-26T21:01:31.445Z,130.97
2022-11-26T21:03:58.791Z,140.87
2022-11-26T21:06:31.694Z,169.53
2022-11-26T21:09:05.433Z,144.60
2022-11-26T21:11:32.461Z,153.10
2022-11-26T21:14:01.474Z,141.97
2022-11-26T21:16:29.792Z,143.13
2022-11-26T21:18:58.157Z,132.87
2022-11-26T21:21:28.062Z,83.43
2022-11-26T21:23:56.507Z,52.67
2022-11-26T21:26:26.057Z,69.40
2022-11-26T21:28:57.256Z,179.00
2022-11-26T21:31:26.392Z,90.93
2022-11-26T21:34:07.400Z,179.67
2022-11-26T21:36:36.602Z,94.93
2022-11-26T21:39:04.623Z,75.17
2022-11-26T21:41:33.732Z,65.90
2022-11-26T21:44:03.633Z,126.80
2022-11-26T21:46:37.869Z,107.23
2022-11-26T21:49:06.410Z,113.73
2022-11-26T21:51:33.545Z,110.57
2022-11-26T21:54:00.610Z,145.90
2022-11-26T21:56:31.267Z,110.43
2022-11-26T21:59:00.759Z,120.27
2022-11-26T22:01:37.807Z,90.77
2022-11-26T22:04:14.761Z,128.43
2022-11-26T22:06:43.721Z,97.83
2022-11-26T22:09:12.221Z,106.30
2022-11-26T22:11:43.602Z,92.20
2022-11-26T22:14:16.752Z,91.80
2022-11-26T22:16:44.130Z,106.00
2022-11-26T22:19:11.171Z,66.30
2022-11-26T22:21:41.544Z,119.20
2022-11-26T22:24:15.261Z,85.17
2022-11-26T22:26:43.622Z,103.33
2022-11-26T22:29:17.308Z,84.80
2022-11-26T22:31:45.103Z,85.17
2022-11-26T22:34:16.030Z,89.57
2022-11-26T22:36:44.358Z,76.30
2022-11-26T22:39:16.508Z,55.83
2022-11-26T22:41:46.010Z,88.43
2022-11-26T22:44:15.555Z,39.27
2022-11-26T22:46:42.949Z,65.73
2022-11-26T22:49:16.247Z,55.83
2022-11-26T22:51:43.743Z,113.80
2022-11-26T22:54:14.256Z,86.87
2022-11-26T22:56:41.622Z,112.77
2022-11-26T22:59:12.934Z,91.10
2022-11-26T23:01:40.593Z,103.13
2022-11-26T23:04:10.170Z,103.57
2022-11-26T23:06:39.223Z,111.70
2022-11-26T23:09:09.244Z,128.80
2022-11-26T23:11:42.404Z,125.73
2022-11-26T23:14:11.987Z,108.50
2022-11-26T23:16:42.544Z,111.37
2022-11-26T23:19:12.700Z,89.80
2022-11-26T23:21:42.705Z,122.20
2022-11-26T23:24:10.688Z,126.20
2022-11-26T23:26:40.099Z,106.80
2022-11-26T23:29:08.846Z,68.77
2022-11-26T23:31:41.400Z,57.87
2022-11-26T23:34:09.642Z,68.47
2022-11-26T23:36:38.079Z,135.53
2022-11-26T23:39:10.068Z,131.57
2022-11-26T23:41:37.141Z,151.33
2022-11-26T23:44:04.642Z,172.30
2022-11-26T23:46:35.211Z,180.80
2022-11-26T23:49:02.353Z,127.93
2022-11-26T23:51:33.075Z,91.53
2022-11-26T23:54:00.589Z,68.87
2022-11-26T23:56:33.208Z,72.53
2022-11-26T23:59:03.803Z,87.97
